📊 Raw Sensor Data

Showing records 40151 to 40175 of 84,958 total

ID Distance (ft) Battery V Battery A Int Temp (°F) Int Humid (%) Ext Temp (°F) Solar V RSSI SNR Time Stamp
44820 15.3 3.87 -5 69 47 70 0.00 -71 7 06/28/2025 10:45 PM
44819 15.3 3.87 -5 70 47 71 0.00 -68 8 06/28/2025 10:30 PM
44818 15.3 3.87 -5 70 48 71 0.00 -67 8 06/28/2025 10:15 PM
44817 15.3 3.86 -5 71 48 72 0.00 -69 8 06/28/2025 10:00 PM
44816 15.3 3.96 -5 72 49 73 0.00 -68 6 06/28/2025 09:45 PM
44815 15.3 3.86 -5 72 51 73 0.00 -68 8 06/28/2025 09:30 PM
44814 15.3 3.86 -5 73 52 73 0.00 -70 8 06/28/2025 09:15 PM
44813 15.3 3.85 -5 74 54 74 0.00 -71 7 06/28/2025 09:00 PM
44812 15.3 3.87 -5 76 56 74 0.90 -68 7 06/28/2025 08:45 PM
44811 15.4 3.87 -10 80 57 77 3.20 -69 8 06/28/2025 08:30 PM
44810 15.4 3.97 0 85 55 80 4.50 -70 8 06/28/2025 08:15 PM
44809 15.4 3.99 0 89 54 84 4.50 -69 8 06/28/2025 08:00 PM
44808 15.5 3.99 6 93 54 87 4.60 -70 7 06/28/2025 07:45 PM
44807 15.5 4.00 9 96 53 90 4.60 -71 7 06/28/2025 07:30 PM
44806 15.5 4.01 6 98 52 92 4.60 -72 7 06/28/2025 07:15 PM
44805 15.5 3.97 25 100 52 92 4.50 -71 8 06/28/2025 07:00 PM
44804 15.5 4.02 29 102 51 95 4.60 -71 8 06/28/2025 06:45 PM
44803 15.5 3.95 0 102 50 95 5.10 -72 8 06/28/2025 06:30 PM
44802 15.5 3.95 0 102 50 94 5.10 -72 7 06/28/2025 06:15 PM
44801 15.5 3.95 0 103 50 93 5.10 -71 8 06/28/2025 06:00 PM
44800 15.5 4.12 0 104 50 95 5.10 -70 8 06/28/2025 05:45 PM
44799 15.5 3.95 0 106 49 95 5.10 -73 8 06/28/2025 05:30 PM
44798 15.6 4.03 0 107 49 99 5.10 -70 8 06/28/2025 05:15 PM
44797 15.5 3.95 0 107 49 96 5.10 -72 8 06/28/2025 05:00 PM
44796 15.6 4.07 0 109 48 96 5.10 -71 8 06/28/2025 04:45 PM